Time,TemperatureF,DewpointF,PressureIn,WindDirection,WindDirectionDegrees,WindSpeedMPH,WindSpeedGustMPH,Humidity,HourlyPrecipIn,Conditions,Clouds,dailyrainin,SoftwareType,DateUTC
2013-05-15 00:02:00,78.0,-99.9,-100.00,SW,219,7.0,9.0,-999,0.00,,,0.00,,2013-05-15 05:02:00,
2013-05-15 00:12:00,78.0,-99.9,-100.00,SW,219,7.0,9.0,-999,0.00,,,0.00,,2013-05-15 05:12:00,
2013-05-15 00:22:00,78.0,-99.9,-100.00,SW,219,7.0,9.0,-999,0.00,,,0.00,,2013-05-15 05:22:00,
2013-05-15 00:32:00,79.0,-99.9,-100.00,SW,226,11.0,16.0,-999,0.00,,,0.00,,2013-05-15 05:32:00,
2013-05-15 00:42:00,79.0,-99.9,-100.00,SW,226,11.0,16.0,-999,0.00,,,0.00,,2013-05-15 05:42:00,
2013-05-15 00:52:00,79.0,-99.9,-100.00,SW,226,11.0,16.0,-999,0.00,,,0.00,,2013-05-15 05:52:00,
2013-05-15 01:03:00,78.0,-99.9,-100.00,SW,221,10.0,18.0,-999,0.00,,,0.00,,2013-05-15 06:03:00,
2013-05-15 01:12:00,78.0,-99.9,-100.00,SW,221,10.0,18.0,-999,0.00,,,0.00,,2013-05-15 06:12:00,
2013-05-15 01:22:00,78.0,-99.9,-100.00,SW,221,10.0,18.0,-999,0.00,,,0.00,,2013-05-15 06:22:00,
2013-05-15 01:32:00,78.0,-99.9,-100.00,SSW,208,11.0,16.0,-999,0.00,,,0.00,,2013-05-15 06:32:00,
2013-05-15 01:42:00,78.0,-99.9,-100.00,SSW,208,11.0,16.0,-999,0.00,,,0.00,,2013-05-15 06:42:00,
2013-05-15 01:52:00,78.0,-99.9,-100.00,SSW,208,11.0,16.0,-999,0.00,,,0.00,,2013-05-15 06:52:00,
2013-05-15 02:01:00,77.0,-99.9,-100.00,SSW,211,10.0,16.0,-999,0.00,,,0.00,,2013-05-15 07:01:00,
2013-05-15 02:11:00,77.0,-99.9,-100.00,SSW,211,10.0,16.0,-999,0.00,,,0.00,,2013-05-15 07:11:00,
2013-05-15 02:22:00,77.0,-99.9,-100.00,SSW,211,10.0,16.0,-999,0.00,,,0.00,,2013-05-15 07:22:00,
2013-05-15 02:32:00,77.0,-99.9,-100.00,SW,225,13.0,16.0,-999,0.00,,,0.00,,2013-05-15 07:32:00,
2013-05-15 02:42:00,77.0,-99.9,-100.00,SW,225,13.0,16.0,-999,0.00,,,0.00,,2013-05-15 07:42:00,
2013-05-15 02:52:00,77.0,-99.9,-100.00,SW,225,13.0,16.0,-999,0.00,,,0.00,,2013-05-15 07:52:00,
2013-05-15 03:02:00,74.0,-99.9,-100.00,WSW,237,9.0,14.0,-999,0.00,,,0.00,,2013-05-15 08:02:00,
2013-05-15 03:12:00,74.0,-99.9,-100.00,WSW,237,9.0,14.0,-999,0.00,,,0.00,,2013-05-15 08:12:00,
2013-05-15 03:22:00,74.0,-99.9,-100.00,WSW,237,9.0,14.0,-999,0.00,,,0.00,,2013-05-15 08:22:00,
2013-05-15 03:32:00,75.0,-99.9,-100.00,WSW,240,10.0,18.0,-999,0.00,,,0.00,,2013-05-15 08:32:00,
2013-05-15 03:42:00,75.0,-99.9,-100.00,WSW,240,10.0,18.0,-999,0.00,,,0.00,,2013-05-15 08:42:00,
2013-05-15 03:53:00,75.0,-99.9,-100.00,WSW,240,10.0,18.0,-999,0.00,,,0.00,,2013-05-15 08:53:00,
2013-05-15 04:01:00,75.0,-99.9,-100.00,WSW,244,8.0,14.0,-999,0.00,,,-99.99,,2013-05-15 09:01:00,
2013-05-15 04:12:00,75.0,-99.9,-100.00,WSW,244,8.0,14.0,-999,0.00,,,-99.99,,2013-05-15 09:12:00,
2013-05-15 04:22:00,75.0,-99.9,-100.00,WSW,244,8.0,14.0,-999,0.00,,,-99.99,,2013-05-15 09:22:00,
2013-05-15 04:33:00,73.0,-99.9,-100.00,WSW,244,4.0,8.0,-999,0.00,,,0.00,,2013-05-15 09:33:00,
2013-05-15 04:42:00,73.0,-99.9,-100.00,WSW,244,4.0,8.0,-999,0.00,,,0.00,,2013-05-15 09:42:00,
2013-05-15 04:53:00,73.0,-99.9,-100.00,WSW,244,4.0,8.0,-999,0.00,,,0.00,,2013-05-15 09:53:00,
2013-05-15 05:02:00,71.0,-99.9,-100.00,WSW,242,3.0,4.0,-999,0.00,,,0.00,,2013-05-15 10:02:00,
2013-05-15 05:13:00,71.0,-99.9,-100.00,WSW,242,3.0,4.0,-999,0.00,,,0.00,,2013-05-15 10:13:00,
2013-05-15 05:23:00,71.0,-99.9,-100.00,WSW,242,3.0,4.0,-999,0.00,,,0.00,,2013-05-15 10:23:00,
2013-05-15 05:32:00,70.0,-99.9,-100.00,WSW,244,3.0,5.0,-999,0.00,,,0.00,,2013-05-15 10:32:00,
2013-05-15 05:43:00,70.0,-99.9,-100.00,WSW,244,3.0,5.0,-999,0.00,,,0.00,,2013-05-15 10:43:00,
2013-05-15 05:53:00,70.0,-99.9,-100.00,WSW,244,3.0,5.0,-999,0.00,,,0.00,,2013-05-15 10:53:00,
2013-05-15 06:00:00,67.0,-99.9,-100.00,WSW,244,3.0,5.0,-999,0.00,,,0.00,,2013-05-15 11:00:00,
2013-05-15 06:15:00,70.0,-99.9,-100.00,WSW,244,3.0,4.0,-999,0.00,,,0.00,,2013-05-15 11:15:00,
2013-05-15 06:29:00,70.0,-99.9,-100.00,WSW,244,3.0,4.0,-999,0.00,,,0.00,,2013-05-15 11:29:00,
2013-05-15 06:30:00,67.0,-99.9,-100.00,SW,229,2.0,3.0,-999,0.00,,,0.00,,2013-05-15 11:30:00,
2013-05-15 06:41:00,67.0,-99.9,-100.00,WSW,244,3.0,5.0,-999,0.00,,,0.00,,2013-05-15 11:41:00,
2013-05-15 06:51:00,67.0,-99.9,-100.00,WSW,244,3.0,5.0,-999,0.00,,,0.00,,2013-05-15 11:51:00,
2013-05-15 07:11:00,67.0,-99.9,-100.00,SW,229,2.0,3.0,-999,0.00,,,0.00,,2013-05-15 12:11:00,
2013-05-15 07:18:00,67.0,-99.9,-100.00,SW,229,2.0,3.0,-999,0.00,,,0.00,,2013-05-15 12:18:00,
2013-05-15 07:30:00,67.0,-99.9,-100.00,WSW,249,4.0,7.0,-999,0.00,,,0.00,,2013-05-15 12:30:00,
2013-05-15 07:38:00,67.0,-99.9,-100.00,SW,221,3.0,5.0,-999,0.00,,,0.00,,2013-05-15 12:38:00,
2013-05-15 07:49:00,67.0,-99.9,-100.00,SW,221,3.0,5.0,-999,0.00,,,0.00,,2013-05-15 12:49:00,
2013-05-15 07:58:00,67.0,-99.9,-100.00,SW,221,3.0,5.0,-999,0.00,,,0.00,,2013-05-15 12:58:00,
2013-05-15 08:13:00,67.0,-99.9,-100.00,WSW,249,4.0,7.0,-999,0.00,,,0.00,,2013-05-15 13:13:00,
2013-05-15 08:20:00,67.0,-99.9,-100.00,WSW,249,4.0,7.0,-999,0.00,,,0.00,,2013-05-15 13:20:00,
2013-05-15 08:29:00,67.0,-99.9,-100.00,WSW,249,4.0,7.0,-999,0.00,,,0.00,,2013-05-15 13:29:00,
2013-05-15 09:10:00,71.0,-99.9,-100.00,West,266,4.0,11.0,-999,0.00,,,0.00,,2013-05-15 14:10:00,
2013-05-15 09:29:00,71.0,-99.9,-100.00,West,266,4.0,11.0,-999,0.00,,,0.00,,2013-05-15 14:29:00,
2013-05-15 09:30:00,73.0,-99.9,-100.00,NNW,332,9.0,11.0,-999,0.00,,,0.00,,2013-05-15 14:30:00,
2013-05-15 09:52:00,73.0,-99.9,-100.00,West,276,5.0,11.0,-999,0.00,,,0.00,,2013-05-15 14:52:00,
2013-05-15 10:00:00,73.0,-99.9,-100.00,NW,324,6.0,10.0,-999,0.00,,,0.00,,2013-05-15 15:00:00,
2013-05-15 10:11:00,73.0,-99.9,-100.00,NNW,332,9.0,11.0,-999,0.00,,,0.00,,2013-05-15 15:11:00,
2013-05-15 10:16:00,73.0,-99.9,-100.00,NNW,332,9.0,11.0,-999,0.00,,,0.00,,2013-05-15 15:16:00,
2013-05-15 10:30:00,73.0,-99.9,-100.00,NNW,347,6.0,10.0,-999,0.00,,,-99.99,,2013-05-15 15:30:00,
2013-05-15 10:42:00,73.0,-99.9,-100.00,NW,324,6.0,10.0,-999,0.00,,,0.00,,2013-05-15 15:42:00,
2013-05-15 10:50:00,73.0,-99.9,-100.00,NW,324,6.0,10.0,-999,0.00,,,0.00,,2013-05-15 15:50:00,
2013-05-15 11:00:00,76.0,-99.9,-100.00,North,352,7.0,13.0,-999,0.00,,,0.00,,2013-05-15 16:00:00,
2013-05-15 11:10:00,73.0,-99.9,-100.00,NNW,347,6.0,10.0,-999,0.00,,,-99.99,,2013-05-15 16:10:00,
2013-05-15 11:25:00,73.0,-99.9,-100.00,NNW,347,6.0,10.0,-999,0.00,,,-99.99,,2013-05-15 16:25:00,
2013-05-15 11:30:00,76.0,-99.9,-100.00,North,1,5.0,9.0,-999,0.00,,,0.00,,2013-05-15 16:30:00,
2013-05-15 11:41:00,76.0,-99.9,-100.00,North,352,7.0,13.0,-999,0.00,,,0.00,,2013-05-15 16:41:00,
2013-05-15 11:52:00,76.0,-99.9,-100.00,North,352,7.0,13.0,-999,0.00,,,0.00,,2013-05-15 16:52:00,
2013-05-15 12:14:00,76.0,-99.9,-100.00,North,1,5.0,9.0,-999,0.00,,,0.00,,2013-05-15 17:14:00,
2013-05-15 12:22:00,76.0,-99.9,-100.00,North,1,5.0,9.0,-999,0.00,,,0.00,,2013-05-15 17:22:00,
2013-05-15 13:09:00,77.0,-99.9,-100.00,North,5,6.0,13.0,-999,0.00,,,0.00,,2013-05-15 18:09:00,
2013-05-15 13:18:00,77.0,-99.9,-100.00,North,5,6.0,13.0,-999,0.00,,,0.00,,2013-05-15 18:18:00,
2013-05-15 13:28:00,77.0,-99.9,-100.00,North,5,6.0,13.0,-999,0.00,,,0.00,,2013-05-15 18:28:00,
2013-05-15 13:30:00,80.0,-99.9,-100.00,North,353,5.0,9.0,-999,0.00,,,0.00,,2013-05-15 18:30:00,
2013-05-15 13:39:00,79.0,-99.9,-100.00,NNW,342,4.0,14.0,-999,0.00,,,0.00,,2013-05-15 18:39:00,
2013-05-15 13:50:00,79.0,-99.9,-100.00,NNW,342,4.0,14.0,-999,0.00,,,0.00,,2013-05-15 18:50:00,
2013-05-15 14:00:00,82.0,-99.9,-100.00,NNW,328,2.0,7.0,-999,0.00,,,0.00,,2013-05-15 19:00:00,
2013-05-15 14:10:00,80.0,-99.9,-100.00,North,353,5.0,9.0,-999,0.00,,,0.00,,2013-05-15 19:10:00,
2013-05-15 14:17:00,80.0,-99.9,-100.00,North,353,5.0,9.0,-999,0.00,,,0.00,,2013-05-15 19:17:00,
2013-05-15 14:30:00,79.0,-99.9,-100.00,NE,42,4.0,10.0,-999,0.00,,,0.00,,2013-05-15 19:30:00,
2013-05-15 14:40:00,82.0,-99.9,-100.00,NNW,328,2.0,7.0,-999,0.00,,,0.00,,2013-05-15 19:40:00,
2013-05-15 14:50:00,82.0,-99.9,-100.00,NNW,328,2.0,7.0,-999,0.00,,,0.00,,2013-05-15 19:50:00,
2013-05-15 15:00:00,80.0,-99.9,-100.00,NNW,333,5.0,7.0,-999,0.00,,,0.00,,2013-05-15 20:00:00,
2013-05-15 15:11:00,79.0,-99.9,-100.00,NE,42,4.0,10.0,-999,0.00,,,0.00,,2013-05-15 20:11:00,
2013-05-15 15:21:00,79.0,-99.9,-100.00,NE,42,4.0,10.0,-999,0.00,,,0.00,,2013-05-15 20:21:00,
2013-05-15 15:41:00,80.0,-99.9,-100.00,NNW,333,5.0,7.0,-999,0.00,,,0.00,,2013-05-15 20:41:00,
2013-05-15 15:49:00,80.0,-99.9,-100.00,NNW,333,5.0,7.0,-999,0.00,,,0.00,,2013-05-15 20:49:00,
2013-05-15 16:00:00,80.0,-99.9,-100.00,North,3,4.0,8.0,-999,0.00,,,0.00,,2013-05-15 21:00:00,
2013-05-15 16:10:00,79.0,-99.9,-100.00,NW,315,2.0,7.0,-999,0.00,,,0.00,,2013-05-15 21:10:00,
2013-05-15 16:21:00,79.0,-99.9,-100.00,NW,315,2.0,7.0,-999,0.00,,,0.00,,2013-05-15 21:21:00,
2013-05-15 16:29:00,79.0,-99.9,-100.00,NW,315,2.0,7.0,-999,0.00,,,0.00,,2013-05-15 21:29:00,
2013-05-15 16:30:00,79.0,-99.9,-100.00,NE,47,8.0,10.0,-999,0.00,,,0.00,,2013-05-15 21:30:00,
2013-05-15 16:43:00,80.0,-99.9,-100.00,North,3,4.0,8.0,-999,0.00,,,0.00,,2013-05-15 21:43:00,
2013-05-15 16:55:00,80.0,-99.9,-100.00,North,3,4.0,8.0,-999,0.00,,,0.00,,2013-05-15 21:55:00,
2013-05-15 17:00:00,85.0,-99.9,-100.00,North,10,0.0,3.0,-999,0.00,,,0.00,,2013-05-15 22:00:00,
2013-05-15 17:12:00,79.0,-99.9,-100.00,NE,47,8.0,10.0,-999,0.00,,,0.00,,2013-05-15 22:12:00,
2013-05-15 17:20:00,79.0,-99.9,-100.00,NE,47,8.0,10.0,-999,0.00,,,0.00,,2013-05-15 22:20:00,
2013-05-15 17:43:00,85.0,-99.9,-100.00,North,10,0.0,3.0,-999,0.00,,,0.00,,2013-05-15 22:43:00,
2013-05-15 17:53:00,85.0,-99.9,-100.00,North,10,0.0,3.0,-999,0.00,,,0.00,,2013-05-15 22:53:00,
2013-05-15 18:00:00,82.0,-99.9,-100.00,NE,34,5.0,10.0,-999,0.00,,,0.00,,2013-05-15 23:00:00,
2013-05-15 18:40:00,82.0,-99.9,-100.00,NE,34,5.0,10.0,-999,0.00,,,0.00,,2013-05-15 23:40:00,
2013-05-15 18:51:00,82.0,-99.9,-100.00,NE,34,5.0,10.0,-999,0.00,,,0.00,,2013-05-15 23:51:00,
2013-05-15 20:00:00,76.0,-99.9,-100.00,SSW,200,1.0,2.0,-999,0.00,,,0.00,,2013-05-16 01:00:00,
2013-05-15 20:20:00,77.0,-99.9,-100.00,SW,224,3.0,5.0,-999,-99.99,,,0.00,,2013-05-16 01:20:00,
2013-05-15 20:30:00,74.0,-99.9,-100.00,WNW,300,2.0,3.0,-999,0.00,,,0.00,,2013-05-16 01:30:00,
2013-05-15 20:51:00,76.0,-99.9,-100.00,SSW,200,1.0,2.0,-999,0.00,,,0.00,,2013-05-16 01:51:00,
2013-05-15 21:09:00,74.0,-99.9,-100.00,WNW,300,2.0,3.0,-999,0.00,,,0.00,,2013-05-16 02:09:00,
2013-05-15 21:18:00,74.0,-99.9,-100.00,WNW,300,2.0,3.0,-999,0.00,,,0.00,,2013-05-16 02:18:00,
2013-05-15 21:40:00,72.0,-99.9,-100.00,NNE,18,1.0,2.0,-999,0.00,,,0.00,,2013-05-16 02:40:00,
2013-05-15 21:57:00,72.0,-99.9,-100.00,NNE,18,1.0,2.0,-999,0.00,,,0.00,,2013-05-16 02:57:00,
2013-05-15 22:08:00,70.0,-99.9,-100.00,East,94,1.0,3.0,-999,0.00,,,0.00,,2013-05-16 03:08:00,
2013-05-15 22:18:00,70.0,-99.9,-100.00,East,94,1.0,3.0,-999,0.00,,,0.00,,2013-05-16 03:18:00,
2013-05-15 22:28:00,70.0,-99.9,-100.00,East,94,1.0,3.0,-999,0.00,,,0.00,,2013-05-16 03:28:00,
2013-05-15 22:42:00,69.0,-99.9,-100.00,SSE,167,0.0,0.0,-999,0.00,,,0.00,,2013-05-16 03:42:00,
2013-05-15 22:48:00,69.0,-99.9,-100.00,SSE,167,0.0,0.0,-999,0.00,,,0.00,,2013-05-16 03:48:00,
2013-05-15 22:59:00,69.0,-99.9,-100.00,SSE,167,0.0,0.0,-999,0.00,,,0.00,,2013-05-16 03:59:00,
2013-05-15 23:03:00,67.0,-99.9,-100.00,SSE,150,0.0,0.0,-999,0.00,,,0.00,,2013-05-16 04:03:00,
2013-05-15 23:12:00,67.0,-99.9,-100.00,SSE,150,0.0,0.0,-999,0.00,,,0.00,,2013-05-16 04:12:00,
2013-05-15 23:23:00,67.0,-99.9,-100.00,SSE,150,0.0,0.0,-999,0.00,,,0.00,,2013-05-16 04:23:00,
2013-05-15 23:33:00,68.0,-99.9,-100.00,NNE,27,2.0,4.0,-999,0.00,,,0.00,,2013-05-16 04:33:00,
2013-05-15 23:43:00,68.0,-99.9,-100.00,NNE,27,2.0,4.0,-999,0.00,,,0.00,,2013-05-16 04:43:00,
2013-05-15 23:53:00,68.0,-99.9,-100.00,NNE,27,2.0,4.0,-999,0.00,,,0.00,,2013-05-16 04:53:00,